Terminal Aerodrome Forecast
Issued by NWS Charleston, WV

Current Version | Previous Version | Graphics & Text | Print | Product List | Glossary On
Versions: 1 2 3 4 5 6 7 8 9 10 11 12 13 14 15 16 17 18 19 20 21 22 23 24 25 26
000
FTUS41 KRLX 221100
TAFCRW
TAF
KCRW 221126Z 2212/2312 00000KT 5SM BR SCT001 SCT030 BKN080
     FM221300 00000KT P6SM BKN025
     FM221500 24005KT 6SM HZ BKN030 BKN080
      TEMPO 2215/2218 2SM TSRA BR OVC020CB
     FM222100 24006KT 4SM +TSRA BR BKN025CB
     FM230100 VRB03KT 5SM BR BKN028
     FM230600 VRB03KT 2SM BR BKN020=

USA.gov is the U.S. government's official web portal to all federal, state and local government web resources and services.